createdAt,value
2022-10-04T00:00:40.681Z,100270.19
2022-10-04T00:03:26.623Z,100265.50
2022-10-04T00:05:58.311Z,100276.53
2022-10-04T00:08:32.020Z,100273.94
2022-10-04T00:11:08.702Z,100277.44
2022-10-04T00:13:38.471Z,100269.63
2022-10-04T00:16:07.006Z,100285.84
2022-10-04T00:18:45.254Z,100288.56
2022-10-04T00:21:12.955Z,100292.16
2022-10-04T00:23:44.405Z,100305.97
2022-10-04T00:26:38.492Z,100309.13
2022-10-04T00:29:32.072Z,100307.41
2022-10-04T00:32:08.688Z,100304.06
2022-10-04T00:34:36.597Z,100304.19
2022-10-04T00:37:14.397Z,100306.09
2022-10-04T00:39:44.155Z,100309.38
2022-10-04T00:42:11.479Z,100309.66
2022-10-04T00:44:44.837Z,100310.59
2022-10-04T00:47:18.445Z,100317.72
2022-10-04T00:49:50.297Z,100311.84
2022-10-04T00:52:27.771Z,100317.47
2022-10-04T00:55:00.405Z,100300.63
2022-10-04T00:57:33.356Z,100311.00
2022-10-04T01:00:12.125Z,100307.63
2022-10-04T01:02:45.664Z,100318.94
2022-10-04T01:05:26.563Z,100320.09
2022-10-04T01:07:54.107Z,100323.50
2022-10-04T01:10:25.292Z,100321.69
2022-10-04T01:13:11.560Z,100324.84
2022-10-04T01:15:43.273Z,100326.94
2022-10-04T01:18:20.624Z,100321.00
2022-10-04T01:20:58.416Z,100326.63
2022-10-04T01:23:37.722Z,100324.75
2022-10-04T01:26:26.723Z,100318.44
2022-10-04T01:28:54.752Z,100316.94
2022-10-04T01:31:23.171Z,100323.47
2022-10-04T01:33:50.900Z,100325.38
2022-10-04T01:36:18.750Z,100324.69
2022-10-04T01:38:46.852Z,100323.00
2022-10-04T01:41:18.207Z,100328.50
2022-10-04T01:43:51.822Z,100323.84
2022-10-04T01:46:40.893Z,100332.09
2022-10-04T01:49:13.485Z,100322.72
2022-10-04T01:51:54.551Z,100333.97
2022-10-04T01:54:32.775Z,100335.88
2022-10-04T01:57:11.917Z,100335.28
2022-10-04T01:59:55.730Z,100339.63
2022-10-04T02:02:35.527Z,100345.13
2022-10-04T02:05:10.452Z,100345.13
2022-10-04T02:07:40.784Z,100338.13
2022-10-04T02:10:18.344Z,100339.25
2022-10-04T02:12:52.415Z,100341.06
2022-10-04T02:15:22.932Z,100335.28
2022-10-04T02:17:51.749Z,100337.66
2022-10-04T02:20:24.143Z,100335.88
2022-10-04T02:23:03.267Z,100335.78
2022-10-04T02:25:31.193Z,100331.91
2022-10-04T02:27:59.440Z,100332.84
2022-10-04T02:30:27.837Z,100330.38
2022-10-04T02:32:57.897Z,100321.13
2022-10-04T02:35:45.286Z,100327.94
2022-10-04T02:38:12.823Z,100325.94
2022-10-04T02:41:05.620Z,100332.28
2022-10-04T02:43:40.492Z,100329.84
2022-10-04T02:46:15.175Z,100336.03
2022-10-04T02:48:49.941Z,100334.34
2022-10-04T02:51:36.345Z,100334.53
2022-10-04T02:54:07.220Z,100339.84
2022-10-04T02:56:37.693Z,100345.97
2022-10-04T02:59:07.801Z,100348.50
2022-10-04T03:01:51.118Z,100344.94
2022-10-04T03:04:23.352Z,100339.84
2022-10-04T03:06:52.608Z,100347.38
2022-10-04T03:09:27.419Z,100351.72
2022-10-04T03:11:57.436Z,100355.28
2022-10-04T03:14:29.475Z,100359.63
2022-10-04T03:17:01.393Z,100357.66
2022-10-04T03:19:31.614Z,100361.72
2022-10-04T03:22:05.004Z,100368.22
2022-10-04T03:24:50.040Z,100372.66
2022-10-04T03:27:31.498Z,100367.22
2022-10-04T03:30:02.120Z,100378.53
2022-10-04T03:32:31.171Z,100383.13
2022-10-04T03:35:08.211Z,100382.28
2022-10-04T03:37:38.190Z,100393.44
2022-10-04T03:40:09.709Z,100401.03
2022-10-04T03:42:39.689Z,100399.84
2022-10-04T03:45:11.606Z,100391.38
2022-10-04T03:47:43.421Z,100394.47
2022-10-04T03:50:29.068Z,100398.81
2022-10-04T03:53:04.440Z,100399.06
2022-10-04T03:55:36.735Z,100399.81
2022-10-04T03:58:09.737Z,100409.09
2022-10-04T04:00:43.351Z,100396.56
2022-10-04T04:03:20.481Z,100399.19
2022-10-04T04:05:57.831Z,100398.69
2022-10-04T04:08:37.284Z,100406.03
2022-10-04T04:11:11.448Z,100405.56
2022-10-04T04:13:52.007Z,100406.41
2022-10-04T04:16:26.322Z,100414.81
2022-10-04T04:18:59.488Z,100408.88
2022-10-04T04:21:28.024Z,100415.28
2022-10-04T04:24:03.411Z,100417.50
2022-10-04T04:26:40.829Z,100410.28
2022-10-04T04:29:11.189Z,100415.47
2022-10-04T04:31:45.821Z,100418.94
2022-10-04T04:34:49.958Z,100427.38
2022-10-04T04:37:17.465Z,100416.53
2022-10-04T04:39:49.253Z,100432.38
2022-10-04T04:42:21.411Z,100437.50
2022-10-04T04:44:54.891Z,100436.47
2022-10-04T04:47:42.771Z,100427.59
2022-10-04T04:50:19.497Z,100435.63
2022-10-04T04:52:58.599Z,100440.81
2022-10-04T04:56:04.573Z,100445.09
2022-10-04T04:58:43.737Z,100452.16
2022-10-04T05:01:23.360Z,100458.59
2022-10-04T05:04:22.141Z,100445.28
2022-10-04T05:07:01.051Z,100455.97
2022-10-04T05:09:32.425Z,100456.53
2022-10-04T05:12:13.846Z,100452.00
2022-10-04T05:14:49.476Z,100449.47
2022-10-04T05:17:26.802Z,100454.84
2022-10-04T05:19:59.300Z,100461.47
2022-10-04T05:22:30.525Z,100457.78
2022-10-04T05:25:09.950Z,100462.91
2022-10-04T05:27:40.402Z,100471.00
2022-10-04T05:30:48.783Z,100475.28
2022-10-04T05:33:36.185Z,100479.34
2022-10-04T05:36:13.862Z,100474.06
2022-10-04T05:39:03.329Z,100480.75
2022-10-04T05:41:34.879Z,100490.13
2022-10-04T05:44:17.417Z,100495.53
2022-10-04T05:46:46.866Z,100483.06
2022-10-04T05:49:19.566Z,100482.13
2022-10-04T05:51:53.272Z,100481.38
2022-10-04T05:54:24.648Z,100482.97
2022-10-04T05:57:15.786Z,100486.28
2022-10-04T05:59:58.456Z,100484.22
2022-10-04T06:02:51.682Z,100489.03
2022-10-04T06:05:35.929Z,100499.91
2022-10-04T06:08:26.705Z,100501.44
2022-10-04T06:11:09.669Z,100498.81
2022-10-04T06:14:14.395Z,100509.78
2022-10-04T06:17:23.088Z,100503.91
2022-10-04T06:19:52.377Z,100500.16
2022-10-04T06:22:22.769Z,100504.28
2022-10-04T06:24:56.084Z,100503.16
2022-10-04T06:27:41.221Z,100506.47
2022-10-04T06:30:17.751Z,100511.69
2022-10-04T06:32:54.996Z,100511.13
2022-10-04T06:35:41.026Z,100512.09
2022-10-04T06:38:22.274Z,100503.19
2022-10-04T06:41:08.137Z,100500.56
2022-10-04T06:43:57.816Z,100502.81
2022-10-04T06:46:37.978Z,100505.47
2022-10-04T06:49:32.932Z,100504.50
2022-10-04T06:52:30.391Z,100509.81
2022-10-04T06:55:46.376Z,100513.22
2022-10-04T06:58:37.362Z,100507.16
2022-10-04T07:01:26.477Z,100509.03
2022-10-04T07:04:14.894Z,100510.22
2022-10-04T07:07:15.840Z,100508.09
2022-10-04T07:09:45.649Z,100503.91
2022-10-04T07:12:17.747Z,100499.91
2022-10-04T07:14:50.241Z,100509.25
2022-10-04T07:17:27.736Z,100502.84
2022-10-04T07:19:57.405Z,100513.50
2022-10-04T07:22:51.256Z,100517.94
2022-10-04T07:25:30.725Z,100509.09
2022-10-04T07:28:29.087Z,100516.97
2022-10-04T07:31:06.479Z,100513.78
2022-10-04T07:33:51.705Z,100508.00
2022-10-04T07:36:39.118Z,100518.41
2022-10-04T07:39:14.191Z,100511.97
2022-10-04T07:41:50.636Z,100509.88
2022-10-04T07:44:34.159Z,100503.06
2022-10-04T07:47:11.058Z,100508.63
2022-10-04T07:49:40.516Z,100498.53
2022-10-04T07:52:17.189Z,100491.28
2022-10-04T07:54:47.318Z,100494.69
2022-10-04T07:57:26.292Z,100502.66
2022-10-04T08:00:14.381Z,100496.38
2022-10-04T08:03:01.006Z,100497.41
2022-10-04T08:05:42.252Z,100500.38
2022-10-04T08:08:23.543Z,100506.72
2022-10-04T08:11:07.066Z,100499.06
2022-10-04T08:13:37.312Z,100499.28
2022-10-04T08:16:35.190Z,100498.34
2022-10-04T08:19:30.552Z,100510.34
2022-10-04T08:21:57.983Z,100503.06
2022-10-04T08:24:31.498Z,100505.13
2022-10-04T08:27:20.868Z,100503.91
2022-10-04T08:30:13.500Z,100511.06
2022-10-04T08:32:49.913Z,100511.31
2022-10-04T08:35:38.437Z,100511.88
2022-10-04T08:38:43.059Z,100512.16
2022-10-04T08:41:31.839Z,100495.66
2022-10-04T08:44:14.154Z,100505.59
2022-10-04T08:47:05.820Z,100501.66
2022-10-04T08:49:54.862Z,100514.16
2022-10-04T08:52:59.917Z,100524.38
2022-10-04T08:55:49.207Z,100513.47
2022-10-04T08:58:34.918Z,100511.22
2022-10-04T09:01:25.532Z,100521.94
2022-10-04T09:04:25.562Z,100516.50
2022-10-04T09:06:55.945Z,100515.03
2022-10-04T09:09:51.047Z,100515.69
2022-10-04T09:12:36.714Z,100525.16
2022-10-04T09:15:23.100Z,100524.06
2022-10-04T09:18:21.757Z,100528.47
2022-10-04T09:21:39.411Z,100520.09
2022-10-04T09:24:18.212Z,100531.50
2022-10-04T09:26:52.379Z,100534.38
2022-10-04T09:29:31.534Z,100535.63
2022-10-04T09:32:46.374Z,100547.81
2022-10-04T09:35:16.689Z,100530.34
2022-10-04T09:37:44.473Z,100536.06
2022-10-04T09:40:35.207Z,100546.59
2022-10-04T09:43:25.143Z,100545.03
2022-10-04T09:46:02.212Z,100547.28
2022-10-04T09:48:43.172Z,100538.50
2022-10-04T09:51:34.636Z,100544.84
2022-10-04T09:54:45.915Z,100555.06
2022-10-04T09:57:31.757Z,100547.53
2022-10-04T10:00:24.468Z,100549.81
2022-10-04T10:02:55.668Z,100555.41
2022-10-04T10:05:50.153Z,100558.25
2022-10-04T10:08:30.108Z,100564.13
2022-10-04T10:11:25.645Z,100563.19
2022-10-04T10:14:11.627Z,100560.63
2022-10-04T10:17:22.605Z,100568.63
2022-10-04T10:20:16.795Z,100586.59
2022-10-04T10:23:01.295Z,100584.13
2022-10-04T10:26:13.310Z,100574.91
2022-10-04T10:28:41.780Z,100584.97
2022-10-04T10:31:51.492Z,100587.91
2022-10-04T10:34:21.768Z,100582.97
2022-10-04T10:37:12.704Z,100592.81
2022-10-04T10:40:08.281Z,100584.56
2022-10-04T10:42:41.837Z,100592.72
2022-10-04T10:45:24.230Z,100589.38
2022-10-04T10:48:05.393Z,100598.06
2022-10-04T10:50:59.952Z,100590.66
2022-10-04T10:54:00.678Z,100586.53
2022-10-04T10:56:47.044Z,100592.84
2022-10-04T10:59:37.126Z,100590.75
2022-10-04T11:02:37.186Z,100608.16
2022-10-04T11:05:26.770Z,100602.25
2022-10-04T11:08:30.093Z,100604.59
2022-10-04T11:11:20.697Z,100588.91
2022-10-04T11:14:21.181Z,100618.66
2022-10-04T11:16:57.892Z,100608.69
2022-10-04T11:19:49.192Z,100607.03
2022-10-04T11:22:54.215Z,100617.75
2022-10-04T11:25:59.785Z,100626.97
2022-10-04T11:28:46.582Z,100613.94
2022-10-04T11:31:26.312Z,100616.16
2022-10-04T11:34:18.476Z,100626.56
2022-10-04T11:37:29.300Z,100638.69
2022-10-04T11:40:14.474Z,100627.97
2022-10-04T11:43:01.212Z,100643.50
2022-10-04T11:45:56.025Z,100660.19
2022-10-04T11:48:38.512Z,100635.41
2022-10-04T11:51:29.802Z,100644.09
2022-10-04T11:54:13.229Z,100644.81
2022-10-04T11:57:18.369Z,100651.03
2022-10-04T12:00:02.433Z,100657.84
2022-10-04T12:02:50.274Z,100652.97
2022-10-04T12:05:20.667Z,100669.25
2022-10-04T12:08:01.618Z,100674.38
2022-10-04T12:10:39.924Z,100671.66
2022-10-04T12:13:19.761Z,100678.69
2022-10-04T12:16:07.724Z,100678.69
2022-10-04T12:18:37.879Z,100669.44
2022-10-04T12:21:28.989Z,100694.56
2022-10-04T12:24:21.376Z,100686.38
2022-10-04T12:26:59.766Z,100683.38
2022-10-04T12:29:55.088Z,100683.38
2022-10-04T12:32:42.048Z,100681.47
2022-10-04T12:35:09.509Z,100677.22
2022-10-04T12:37:47.423Z,100695.81
2022-10-04T12:40:50.459Z,100701.25
2022-10-04T12:43:40.357Z,100696.94
2022-10-04T12:46:17.549Z,100696.69
2022-10-04T12:48:49.068Z,100699.72
2022-10-04T12:51:25.513Z,100705.09
2022-10-04T12:54:27.403Z,100703.38
2022-10-04T12:57:00.804Z,100705.69
2022-10-04T12:59:56.109Z,100711.81
2022-10-04T13:02:26.486Z,100715.63
2022-10-04T13:05:12.332Z,100716.41
2022-10-04T13:08:05.852Z,100715.47
2022-10-04T13:10:58.564Z,100721.75
2022-10-04T13:14:20.293Z,100726.66
2022-10-04T13:20:00.611Z,100735.91
2022-10-04T13:22:58.536Z,100744.19
2022-10-04T13:25:41.261Z,100747.28
2022-10-04T13:28:34.489Z,100751.53
2022-10-04T13:31:11.289Z,100761.28
2022-10-04T13:34:14.570Z,100741.28
2022-10-04T13:37:01.247Z,100746.41
2022-10-04T13:39:31.553Z,100757.03
2022-10-04T13:42:07.643Z,100750.66
2022-10-04T13:44:51.229Z,100758.31
2022-10-04T13:47:54.589Z,100764.78
2022-10-04T13:50:50.144Z,100761.28
2022-10-04T13:53:39.480Z,100758.41
2022-10-04T13:56:36.933Z,100762.78
2022-10-04T13:59:33.812Z,100774.69
2022-10-04T14:02:27.365Z,100773.63
2022-10-04T14:05:09.605Z,100772.59
2022-10-04T14:08:12.429Z,100774.69
2022-10-04T14:10:47.541Z,100777.88
2022-10-04T14:13:40.750Z,100782.13
2022-10-04T14:16:46.055Z,100780.31
2022-10-04T14:19:17.146Z,100780.00
2022-10-04T14:22:12.257Z,100788.16
2022-10-04T14:24:47.001Z,100790.72
2022-10-04T14:27:26.258Z,100788.91
2022-10-04T14:30:19.725Z,100796.91
2022-10-04T14:33:02.402Z,100800.31
2022-10-04T14:35:56.552Z,100806.59
2022-10-04T14:38:36.643Z,100802.97
2022-10-04T14:41:35.414Z,100812.22
2022-10-04T14:44:30.116Z,100812.72
2022-10-04T14:47:42.940Z,100817.84
2022-10-04T14:50:49.465Z,100819.56
2022-10-04T14:53:47.756Z,100827.94
2022-10-04T14:56:33.457Z,100831.22
2022-10-04T14:59:34.688Z,100831.56
2022-10-04T15:02:17.612Z,100844.72
2022-10-04T15:05:03.507Z,100845.25
2022-10-04T15:07:34.768Z,100844.69
2022-10-04T15:10:20.538Z,100854.13
2022-10-04T15:13:19.376Z,100866.00
2022-10-04T15:16:14.437Z,100866.94
2022-10-04T15:19:04.195Z,100871.69
2022-10-04T15:21:53.176Z,100879.09
2022-10-04T15:24:28.220Z,100881.97
2022-10-04T15:27:16.945Z,100889.75
2022-10-04T15:30:10.083Z,100896.97
2022-10-04T15:32:41.207Z,100907.97
2022-10-04T15:35:51.956Z,100911.75
2022-10-04T15:38:38.256Z,100913.09
2022-10-04T15:41:47.690Z,100922.00
2022-10-04T15:44:30.331Z,100930.28
2022-10-04T15:47:24.250Z,100934.28
2022-10-04T15:50:07.735Z,100943.50
2022-10-04T15:52:51.943Z,100950.19
2022-10-04T15:55:22.080Z,100942.69
2022-10-04T15:58:12.567Z,100955.13
2022-10-04T16:00:46.558Z,100962.22
2022-10-04T16:03:39.119Z,100967.72
2022-10-04T16:06:25.009Z,100975.94
2022-10-04T16:09:34.021Z,100979.56
2022-10-04T16:12:23.575Z,100975.63
2022-10-04T16:15:09.643Z,100991.53
2022-10-04T16:17:49.227Z,100991.63
2022-10-04T16:20:34.520Z,100997.88
2022-10-04T16:23:35.775Z,100991.72
2022-10-04T16:26:08.963Z,100976.84
2022-10-04T16:28:56.300Z,100976.84
2022-10-04T16:31:42.979Z,100978.66
2022-10-04T16:34:29.468Z,100976.50
2022-10-04T16:37:25.689Z,100976.56
2022-10-04T16:40:03.539Z,100982.06
2022-10-04T16:42:40.721Z,100984.63
2022-10-04T16:45:08.501Z,100982.22
2022-10-04T16:47:37.369Z,100978.38
2022-10-04T16:50:09.945Z,100988.41
2022-10-04T16:52:50.474Z,100981.31
2022-10-04T16:55:28.792Z,100980.28
2022-10-04T16:58:27.261Z,100982.22
2022-10-04T17:01:36.612Z,100988.41
2022-10-04T17:04:04.188Z,100990.69
2022-10-04T17:06:44.133Z,100982.16
2022-10-04T17:09:48.836Z,100990.63
2022-10-04T17:12:45.522Z,100990.47
2022-10-04T17:15:27.725Z,100994.63
2022-10-04T17:18:09.016Z,100997.28
2022-10-04T17:20:43.155Z,101010.06
2022-10-04T17:23:35.448Z,101013.41
2022-10-04T17:26:08.908Z,101007.34
2022-10-04T17:29:03.971Z,101006.47
2022-10-04T17:31:57.790Z,101008.19
2022-10-04T17:34:43.936Z,101005.25
2022-10-04T17:37:53.666Z,101008.19
2022-10-04T17:40:29.291Z,101014.44
2022-10-04T17:43:16.972Z,101010.75
2022-10-04T17:46:06.880Z,101015.44
2022-10-04T17:49:20.566Z,101017.59
2022-10-04T17:52:09.839Z,101013.34
2022-10-04T17:55:08.020Z,101010.28
2022-10-04T17:57:48.467Z,101013.00
2022-10-04T18:00:29.372Z,101012.47
2022-10-04T18:03:10.283Z,101016.34
2022-10-04T18:05:41.353Z,101027.88
2022-10-04T18:08:20.863Z,101024.13
2022-10-04T18:11:28.720Z,101026.94
2022-10-04T18:14:22.561Z,101033.16
2022-10-04T18:17:00.923Z,101034.88
2022-10-04T18:19:51.801Z,101037.75
2022-10-04T18:22:21.882Z,101031.47
2022-10-04T18:25:14.066Z,101036.91
2022-10-04T18:28:07.178Z,101040.69
2022-10-04T18:30:54.065Z,101035.47
2022-10-04T18:33:26.633Z,101040.16
2022-10-04T18:36:05.137Z,101044.81
2022-10-04T18:38:36.481Z,101045.31
2022-10-04T18:41:16.084Z,101054.09
2022-10-04T18:44:13.444Z,101056.22
2022-10-04T18:46:42.488Z,101048.28
2022-10-04T18:49:27.092Z,101047.56
2022-10-04T18:52:07.166Z,101046.56
2022-10-04T18:54:53.159Z,101048.41
2022-10-04T18:57:58.703Z,101057.31
2022-10-04T19:00:57.049Z,101048.41
2022-10-04T19:03:39.118Z,101052.00
2022-10-04T19:06:19.522Z,101046.88
2022-10-04T19:09:02.002Z,101054.03
2022-10-04T19:11:32.747Z,101051.47
2022-10-04T19:14:21.925Z,101056.75
2022-10-04T19:16:57.182Z,101058.66
2022-10-04T19:19:53.702Z,101063.00
2022-10-04T19:22:55.003Z,101060.25
2022-10-04T19:25:33.867Z,101062.06
2022-10-04T19:28:13.398Z,101065.66
2022-10-04T19:30:48.375Z,101064.97
2022-10-04T19:33:23.668Z,101068.94
2022-10-04T19:36:23.610Z,101069.63
2022-10-04T19:39:14.975Z,101065.09
2022-10-04T19:41:57.688Z,101067.00
2022-10-04T19:44:32.193Z,101069.38
2022-10-04T19:47:28.909Z,101072.66
2022-10-04T19:50:23.866Z,101067.34
2022-10-04T19:53:02.765Z,101071.03
2022-10-04T19:55:42.859Z,101077.09
2022-10-04T19:58:40.877Z,101077.41
2022-10-04T20:01:21.390Z,101069.56
2022-10-04T20:04:08.117Z,101078.44
2022-10-04T20:06:38.434Z,101073.69
2022-10-04T20:09:41.120Z,101073.81
2022-10-04T20:12:36.730Z,101074.66
2022-10-04T20:15:25.107Z,101076.56
2022-10-04T20:17:56.414Z,101074.00
2022-10-04T20:20:43.423Z,101079.59
2022-10-04T20:23:12.023Z,101075.47
2022-10-04T20:25:45.849Z,101080.75
2022-10-04T20:28:35.580Z,101072.91
2022-10-04T20:31:06.812Z,101075.94
2022-10-04T20:33:34.455Z,101068.13
2022-10-04T20:36:12.405Z,101076.97
2022-10-04T20:39:02.254Z,101078.97
2022-10-04T20:41:30.259Z,101080.13
2022-10-04T20:44:02.846Z,101071.88
2022-10-04T20:46:38.329Z,101084.19
2022-10-04T20:49:15.933Z,101086.75
2022-10-04T20:51:51.067Z,101086.66
2022-10-04T20:54:20.272Z,101093.75
2022-10-04T20:56:49.581Z,101092.72
2022-10-04T20:59:18.345Z,101093.75
2022-10-04T21:02:06.726Z,101104.34
2022-10-04T21:04:44.621Z,101095.63
2022-10-04T21:07:33.511Z,101095.63
2022-10-04T21:10:18.180Z,101099.13
2022-10-04T21:12:46.868Z,101092.81
2022-10-04T21:15:16.218Z,101102.31
2022-10-04T21:17:58.651Z,101099.91
2022-10-04T21:20:46.437Z,101098.88
2022-10-04T21:23:18.037Z,101102.47
2022-10-04T21:25:45.540Z,101102.63
2022-10-04T21:28:24.241Z,101092.03
2022-10-04T21:30:51.906Z,101106.91
2022-10-04T21:33:19.379Z,101107.06
2022-10-04T21:35:50.865Z,101105.09
2022-10-04T21:38:19.420Z,101100.06
2022-10-04T21:40:46.952Z,101108.84
2022-10-04T21:43:15.604Z,101103.47
2022-10-04T21:45:43.675Z,101116.63
2022-10-04T21:48:11.274Z,101113.91
2022-10-04T21:50:40.618Z,101117.72
2022-10-04T21:53:08.202Z,101104.28
2022-10-04T21:55:35.672Z,101108.63
2022-10-04T21:58:03.193Z,101115.47
2022-10-04T22:00:30.699Z,101105.44
2022-10-04T22:02:58.483Z,101104.44
2022-10-04T22:05:26.390Z,101113.38
2022-10-04T22:07:54.003Z,101112.53
2022-10-04T22:10:22.344Z,101118.84
2022-10-04T22:12:50.172Z,101118.84
2022-10-04T22:15:23.966Z,101114.31
2022-10-04T22:17:52.192Z,101110.91
2022-10-04T22:20:19.942Z,101118.06
2022-10-04T22:22:47.694Z,101118.38
2022-10-04T22:25:20.717Z,101129.09
2022-10-04T22:27:49.221Z,101128.31
2022-10-04T22:30:28.235Z,101133.78
2022-10-04T22:32:58.613Z,101130.50
2022-10-04T22:35:30.799Z,101135.78
2022-10-04T22:37:59.914Z,101140.28
2022-10-04T22:40:28.829Z,101134.06
2022-10-04T22:42:59.141Z,101137.94
2022-10-04T22:45:29.582Z,101133.72
2022-10-04T22:48:01.243Z,101141.97
2022-10-04T22:50:33.420Z,101139.22
2022-10-04T22:53:06.876Z,101133.16
2022-10-04T22:55:35.666Z,101136.66
2022-10-04T22:58:03.809Z,101136.81
2022-10-04T23:00:31.560Z,101135.97
2022-10-04T23:02:59.115Z,101139.47
2022-10-04T23:05:27.965Z,101131.53
2022-10-04T23:07:56.175Z,101135.81
2022-10-04T23:10:23.621Z,101137.69
2022-10-04T23:12:52.704Z,101139.31
2022-10-04T23:15:21.033Z,101135.97
2022-10-04T23:17:58.277Z,101136.88
2022-10-04T23:20:29.542Z,101142.13
2022-10-04T23:22:59.835Z,101141.97
2022-10-04T23:25:29.316Z,101151.97
2022-10-04T23:28:03.314Z,101144.41
2022-10-04T23:30:31.032Z,101145.19
2022-10-04T23:33:01.324Z,101147.13
2022-10-04T23:35:32.965Z,101148.06
2022-10-04T23:38:07.082Z,101151.66
2022-10-04T23:40:34.864Z,101157.16
2022-10-04T23:43:04.585Z,101156.41
2022-10-04T23:45:34.379Z,101144.97
2022-10-04T23:48:02.007Z,101147.53
2022-10-04T23:50:31.246Z,101150.19
2022-10-04T23:53:04.568Z,101151.97
2022-10-04T23:55:44.166Z,101153.84
2022-10-04T23:58:17.652Z,101149.56
